Time;durP1;ratioP1;P1;durP2;ratioP2;P2;SDS_P1;SDS_P2;PMS_P1;PMS_P2;Temp;Humidity;BMP_temperature;BMP_pressure;BME280_temperature;BME280_humidity;BME280_pressure;Samples;Min_cycle;Max_cycle;Signal;HPM_P1;HPM_P2
2023/05/18 00:00:20;;;;;;;;;;;;;;;25.11;36.06;100203.41;5059797;28;1115;-33
2023/05/18 00:02:47;;;;;;;;;;;;;;;24.94;36.37;100208.94;5071577;28;1164;-34
2023/05/18 00:05:12;;;;;;;;;;;;;;;24.89;36.38;100193.28;5072632;28;1906;-33
2023/05/18 00:07:38;;;;;;;;;;;;;;;24.86;36.52;100195.53;5070960;28;1031;-32
2023/05/18 00:10:04;;;;;;;;;;;;;;;24.80;36.26;100192.56;5072645;28;1217;-35
2023/05/18 00:12:29;;;;;;;;;;;;;;;24.99;36.03;100190.38;5071558;28;1055;-34
2023/05/18 00:14:55;;;;;;;;;;;;;;;24.96;36.29;100179.16;5079196;28;1093;-33
2023/05/18 00:17:20;;;;;;;;;;;;;;;24.89;36.34;100170.97;5060865;28;1110;-34
2023/05/18 00:19:46;;;;;;;;;;;;;;;24.97;36.13;100162.84;5064507;28;1106;-33
2023/05/18 00:22:16;;;;;;;;;;;;;;;24.94;36.13;100168.59;5078690;28;1070;-32
2023/05/18 00:24:42;;;;;;;;;;;;;;;24.86;36.42;100164.06;5058635;28;1961;-35
2023/05/18 00:27:08;;;;;;;;;;;;;;;24.82;36.52;100168.97;5071399;28;1000;-34
2023/05/18 00:29:33;;;;;;;;;;;;;;;24.85;36.09;100175.00;5064928;28;1043;-34
2023/05/18 00:31:59;;;;;;;;;;;;;;;25.10;35.71;100174.81;5052610;28;1397;-34
2023/05/18 00:34:24;;;;;;;;;;;;;;;25.02;35.97;100171.22;5054524;28;1159;-35
2023/05/18 00:36:50;;;;;;;;;;;;;;;24.79;36.71;100171.22;5052953;28;1147;-34
2023/05/18 00:39:15;;;;;;;;;;;;;;;24.82;36.56;100179.72;5060599;28;1129;-33
2023/05/18 00:41:41;;;;;;;;;;;;;;;25.04;35.94;100174.53;5060039;28;1103;-32
2023/05/18 00:44:07;;;;;;;;;;;;;;;25.00;36.47;100181.31;5064143;28;1145;-34
2023/05/18 00:46:32;;;;;;;;;;;;;;;24.88;36.29;100188.94;5060394;28;1910;-33
2023/05/18 00:49:00;;;;;;;;;;;;;;;25.06;35.89;100180.56;5058901;28;1048;-34
2023/05/18 00:51:25;;;;;;;;;;;;;;;24.83;36.58;100183.28;5070768;28;996;-34
2023/05/18 00:53:52;;;;;;;;;;;;;;;25.02;35.91;100187.34;5054000;28;1016;-32
2023/05/18 00:56:17;;;;;;;;;;;;;;;24.86;36.33;100190.16;5045474;28;1095;-35
2023/05/18 00:58:43;;;;;;;;;;;;;;;24.76;36.74;100185.84;5040312;28;1128;-34
2023/05/18 01:01:08;;;;;;;;;;;;;;;24.73;36.80;100198.81;5052564;28;1055;-35
2023/05/18 01:03:36;;;;;;;;;;;;;;;24.91;36.23;100199.38;5077326;28;1004;-34
2023/05/18 01:06:04;;;;;;;;;;;;;;;24.93;36.08;100196.50;5077983;28;1906;-33
2023/05/18 01:08:30;;;;;;;;;;;;;;;25.03;36.13;100193.56;5059276;28;1106;-34
2023/05/18 01:11:11;;;;;;;;;;;;;;;24.88;36.41;100199.72;5040230;28;1178;-34
2023/05/18 01:13:42;;;;;;;;;;;;;;;24.80;36.56;100183.63;5057549;28;1159;-32
2023/05/18 01:16:08;;;;;;;;;;;;;;;24.83;36.10;100181.44;5053454;28;1123;-34
2023/05/18 01:18:37;;;;;;;;;;;;;;;24.97;36.07;100180.84;5066479;28;1098;-35
2023/05/18 01:21:24;;;;;;;;;;;;;;;25.00;36.10;100173.22;5074717;28;1120;-34
2023/05/18 01:24:08;;;;;;;;;;;;;;;25.07;35.93;100173.34;5039367;28;1155;-35
2023/05/18 01:26:36;;;;;;;;;;;;;;;25.00;35.69;100180.47;5039545;28;1942;-33
2023/05/18 01:29:05;;;;;;;;;;;;;;;25.15;35.68;100175.09;5052987;28;1138;-33
2023/05/18 01:31:31;;;;;;;;;;;;;;;25.13;35.66;100185.22;5048286;28;1091;-34
2023/05/18 01:33:57;;;;;;;;;;;;;;;24.99;35.96;100184.19;5076614;28;949;-35
2023/05/18 01:36:22;;;;;;;;;;;;;;;24.91;35.87;100180.53;5069064;28;1100;-32
2023/05/18 01:38:47;;;;;;;;;;;;;;;25.00;35.46;100185.84;5053100;28;1182;-33
2023/05/18 01:41:13;;;;;;;;;;;;;;;24.95;35.58;100189.09;5047370;28;1233;-34
2023/05/18 01:43:45;;;;;;;;;;;;;;;24.98;35.75;100191.41;5063342;28;1165;-33
2023/05/18 01:46:12;;;;;;;;;;;;;;;25.21;35.18;100192.41;5067476;28;1910;-34
2023/05/18 01:48:38;;;;;;;;;;;;;;;24.97;35.43;100191.59;5054699;28;1114;-31
2023/05/18 01:51:05;;;;;;;;;;;;;;;24.81;36.13;100191.53;5049899;28;1277;-35
2023/05/18 01:53:30;;;;;;;;;;;;;;;24.85;35.98;100196.53;5054566;28;1099;-32
2023/05/18 01:55:56;;;;;;;;;;;;;;;24.78;36.04;100202.66;5067468;28;1020;-34
2023/05/18 01:58:21;;;;;;;;;;;;;;;24.70;36.38;100194.66;5051422;28;1683;-32
2023/05/18 02:00:47;;;;;;;;;;;;;;;24.65;36.53;100205.09;5048823;28;1155;-34
2023/05/18 02:03:13;;;;;;;;;;;;;;;24.75;36.34;100203.00;5058141;28;1214;-35
2023/05/18 02:05:38;;;;;;;;;;;;;;;24.91;36.02;100201.22;5032257;28;1969;-34
2023/05/18 02:08:04;;;;;;;;;;;;;;;24.94;35.85;100201.69;5041459;28;1309;-34
2023/05/18 02:10:30;;;;;;;;;;;;;;;25.00;35.71;100202.84;5048487;28;1111;-31
2023/05/18 02:12:55;;;;;;;;;;;;;;;25.03;35.64;100205.16;5055022;28;1055;-33
2023/05/18 02:15:21;;;;;;;;;;;;;;;25.01;35.40;100204.50;5058341;28;1119;-34
2023/05/18 02:17:48;;;;;;;;;;;;;;;25.06;35.70;100207.47;5041220;28;1217;-35
2023/05/18 02:20:17;;;;;;;;;;;;;;;24.91;36.11;100201.22;5048506;28;1125;-33
2023/05/18 02:22:43;;;;;;;;;;;;;;;25.14;35.36;100203.88;5062753;28;1168;-32
2023/05/18 02:25:08;;;;;;;;;;;;;;;24.90;35.84;100211.16;5075998;28;1981;-34
2023/05/18 02:27:35;;;;;;;;;;;;;;;24.93;35.77;100218.88;5045074;28;1884;-32
2023/05/18 02:30:04;;;;;;;;;;;;;;;24.88;35.95;100220.38;5066162;28;1141;-35
2023/05/18 02:32:37;;;;;;;;;;;;;;;25.04;35.61;100217.59;5041976;28;1159;-33
2023/05/18 02:35:05;;;;;;;;;;;;;;;24.96;35.49;100220.34;5063974;28;1011;-34
2023/05/18 02:37:33;;;;;;;;;;;;;;;24.94;35.62;100228.59;5043465;28;1155;-35
2023/05/18 02:40:01;;;;;;;;;;;;;;;24.94;35.67;100231.28;5045706;28;1216;-34
2023/05/18 02:42:28;;;;;;;;;;;;;;;24.94;35.55;100233.16;5057786;28;1106;-35
2023/05/18 02:44:55;;;;;;;;;;;;;;;24.92;35.71;100241.38;5057302;28;1967;-33
2023/05/18 02:47:20;;;;;;;;;;;;;;;24.76;36.06;100245.03;5051280;28;1298;-34
2023/05/18 02:49:46;;;;;;;;;;;;;;;24.79;36.02;100243.84;5038199;28;1142;-33
2023/05/18 02:52:11;;;;;;;;;;;;;;;24.71;36.02;100244.72;5051224;28;1099;-32
2023/05/18 02:54:37;;;;;;;;;;;;;;;24.78;35.92;100242.16;5037911;28;1120;-35
2023/05/18 02:57:06;;;;;;;;;;;;;;;24.79;35.93;100247.34;5056761;28;1407;-35
2023/05/18 02:59:56;;;;;;;;;;;;;;;24.66;36.13;100260.56;5055166;28;1360;-33
2023/05/18 03:02:22;;;;;;;;;;;;;;;24.80;35.82;100258.94;5047423;28;1124;-34
2023/05/18 03:04:56;;;;;;;;;;;;;;;24.73;36.08;100263.38;5041444;28;1976;-34
2023/05/18 03:07:22;;;;;;;;;;;;;;;24.87;35.88;100262.63;5048147;28;1980;-32
2023/05/18 03:09:48;;;;;;;;;;;;;;;24.87;35.71;100273.38;5055664;28;1205;-34
2023/05/18 03:12:13;;;;;;;;;;;;;;;25.05;35.34;100277.63;5070675;28;1198;-34
2023/05/18 03:14:39;;;;;;;;;;;;;;;24.91;35.78;100276.53;5049861;28;1111;-35
2023/05/18 03:17:05;;;;;;;;;;;;;;;24.28;35.98;100274.72;5057276;28;1149;-33
2023/05/18 03:19:31;;;;;;;;;;;;;;;24.04;36.37;100280.00;5062096;28;1266;-36
2023/05/18 03:21:57;;;;;;;;;;;;;;;23.76;36.44;100280.41;5052943;28;1233;-36
2023/05/18 03:24:25;;;;;;;;;;;;;;;23.67;36.83;100278.78;5066922;28;1230;-37
2023/05/18 03:26:53;;;;;;;;;;;;;;;23.52;37.02;100284.00;5049064;28;1906;-36
2023/05/18 03:29:19;;;;;;;;;;;;;;;23.58;36.54;100281.47;5061721;28;1549;-36
2023/05/18 03:31:44;;;;;;;;;;;;;;;23.60;36.62;100276.78;5079200;28;1137;-37
2023/05/18 03:34:11;;;;;;;;;;;;;;;23.71;36.49;100264.81;5059654;28;1294;-36
2023/05/18 03:36:37;;;;;;;;;;;;;;;23.59;36.38;100280.44;5054549;28;1174;-34
2023/05/18 03:39:06;;;;;;;;;;;;;;;23.96;36.16;100274.66;5053958;28;1457;-34
2023/05/18 03:41:32;;;;;;;;;;;;;;;23.00;38.12;100270.75;5049898;28;1258;-37
2023/05/18 03:43:57;;;;;;;;;;;;;;;23.24;37.89;100269.88;5065590;28;1230;-37
2023/05/18 03:46:23;;;;;;;;;;;;;;;23.35;37.41;100274.09;5071038;28;1967;-33
2023/05/18 03:48:49;;;;;;;;;;;;;;;23.40;37.29;100270.94;5043070;28;1175;-37
2023/05/18 03:51:19;;;;;;;;;;;;;;;23.54;37.15;100265.88;5053284;28;1159;-37
2023/05/18 03:53:45;;;;;;;;;;;;;;;23.53;37.01;100267.72;5054410;28;1112;-36
2023/05/18 03:56:12;;;;;;;;;;;;;;;23.58;36.80;100262.69;5049586;28;1278;-37
2023/05/18 03:58:37;;;;;;;;;;;;;;;23.55;36.58;100260.34;5059996;28;1235;-36
2023/05/18 04:01:03;;;;;;;;;;;;;;;23.59;36.61;100267.03;5079293;28;1031;-37
2023/05/18 04:03:29;;;;;;;;;;;;;;;23.79;36.75;100268.50;5075524;28;1140;-35
2023/05/18 04:05:55;;;;;;;;;;;;;;;23.83;34.30;100265.28;5060872;28;1914;-34
2023/05/18 04:08:24;;;;;;;;;;;;;;;23.75;35.40;100264.47;5078827;28;1062;-34
2023/05/18 04:10:50;;;;;;;;;;;;;;;23.44;36.57;100274.13;5057520;28;1141;-35
2023/05/18 04:13:17;;;;;;;;;;;;;;;23.36;36.89;100272.22;5059433;28;1323;-34
2023/05/18 04:15:42;;;;;;;;;;;;;;;23.36;37.06;100277.59;5061227;28;1262;-33
2023/05/18 04:18:09;;;;;;;;;;;;;;;23.53;36.71;100277.59;5059958;28;1118;-33
2023/05/18 04:20:36;;;;;;;;;;;;;;;23.50;36.65;100273.44;5075260;28;1274;-35
2023/05/18 04:23:02;;;;;;;;;;;;;;;23.46;36.83;100283.66;5057715;28;1124;-34
2023/05/18 04:25:27;;;;;;;;;;;;;;;23.35;37.25;100281.28;5064731;28;1977;-34
2023/05/18 04:27:53;;;;;;;;;;;;;;;23.33;37.19;100284.16;5078307;28;1109;-35
2023/05/18 04:30:23;;;;;;;;;;;;;;;23.84;36.33;100277.69;5057505;28;1261;-33
2023/05/18 04:32:49;;;;;;;;;;;;;;;23.84;36.28;100290.28;5045818;28;1308;-29
2023/05/18 04:35:15;;;;;;;;;;;;;;;23.67;36.79;100300.25;5059164;28;1324;-30
2023/05/18 04:37:41;;;;;;;;;;;;;;;23.70;36.70;100302.59;5044022;28;1126;-32
2023/05/18 04:40:15;;;;;;;;;;;;;;;23.53;37.08;100299.94;5044786;28;1210;-33
2023/05/18 04:42:44;;;;;;;;;;;;;;;23.69;36.79;100303.63;5052036;28;2060;-33
2023/05/18 04:45:14;;;;;;;;;;;;;;;23.79;36.47;100314.16;5047089;28;1921;-33
2023/05/18 04:47:40;;;;;;;;;;;;;;;23.69;36.85;100308.97;5060300;28;1258;-33
2023/05/18 04:50:05;;;;;;;;;;;;;;;23.66;36.94;100310.13;5060058;28;1047;-31
2023/05/18 04:52:35;;;;;;;;;;;;;;;23.75;36.53;100308.28;5060265;28;1066;-32
2023/05/18 04:55:02;;;;;;;;;;;;;;;23.66;36.89;100304.78;5047242;28;1357;-28
2023/05/18 04:57:27;;;;;;;;;;;;;;;23.16;38.04;100296.72;5058618;28;1654;-33
2023/05/18 04:59:53;;;;;;;;;;;;;;;23.42;37.54;100303.78;5046783;28;1351;-31
2023/05/18 05:02:20;;;;;;;;;;;;;;;23.52;37.08;100309.00;5076155;28;888;-31
2023/05/18 05:04:46;;;;;;;;;;;;;;;23.51;37.08;100307.31;5078022;28;905;-33
2023/05/18 05:07:11;;;;;;;;;;;;;;;23.44;37.51;100315.19;5060183;28;1946;-31
2023/05/18 05:09:41;;;;;;;;;;;;;;;23.75;36.78;100319.03;5046286;28;1147;-28
2023/05/18 05:12:07;;;;;;;;;;;;;;;23.77;37.60;100316.16;5060484;28;1087;-26
2023/05/18 05:14:33;;;;;;;;;;;;;;;23.93;36.72;100316.13;5065202;28;1215;-29
2023/05/18 05:16:58;;;;;;;;;;;;;;;23.89;36.88;100320.16;5059886;28;1106;-29
2023/05/18 05:19:24;;;;;;;;;;;;;;;23.59;37.81;100314.50;5051320;28;1284;-26
2023/05/18 05:21:49;;;;;;;;;;;;;;;23.95;37.04;100319.50;5061698;28;1242;-30
2023/05/18 05:24:15;;;;;;;;;;;;;;;23.52;38.15;100318.91;5059921;28;1302;-29
2023/05/18 05:26:40;;;;;;;;;;;;;;;23.09;39.53;100309.13;5041816;28;1918;-32
2023/05/18 05:29:06;;;;;;;;;;;;;;;23.68;37.79;100321.56;5055110;28;1338;-28
2023/05/18 05:31:33;;;;;;;;;;;;;;;23.56;38.47;100322.91;5066910;28;1206;-28
2023/05/18 05:33:58;;;;;;;;;;;;;;;22.97;39.44;100317.50;5050427;28;1254;-32
2023/05/18 05:36:24;;;;;;;;;;;;;;;22.69;40.09;100319.63;5055375;28;1420;-29
2023/05/18 05:38:50;;;;;;;;;;;;;;;22.97;39.66;100319.34;5057559;28;1155;-24
2023/05/18 05:41:15;;;;;;;;;;;;;;;23.73;38.20;100313.84;5051291;28;1107;-30
2023/05/18 05:43:41;;;;;;;;;;;;;;;23.64;38.28;100311.34;5038756;28;1347;-28
2023/05/18 05:46:07;;;;;;;;;;;;;;;23.91;37.63;100322.66;5041449;28;1910;-33
2023/05/18 05:48:32;;;;;;;;;;;;;;;24.31;36.19;100326.28;5076449;28;1210;-28
2023/05/18 05:50:58;;;;;;;;;;;;;;;24.38;36.33;100322.88;5055372;28;1340;-30
2023/05/18 05:53:23;;;;;;;;;;;;;;;24.39;36.43;100327.28;5056681;28;1230;-34
2023/05/18 05:55:49;;;;;;;;;;;;;;;24.41;36.09;100336.81;5041488;28;1443;-33
2023/05/18 05:58:16;;;;;;;;;;;;;;;24.54;35.84;100332.75;5048306;28;1108;-32
2023/05/18 06:00:47;;;;;;;;;;;;;;;24.59;35.41;100335.72;5052025;28;1427;-33
2023/05/18 06:03:13;;;;;;;;;;;;;;;24.82;35.26;100345.69;5048516;28;1353;-32
2023/05/18 06:05:42;;;;;;;;;;;;;;;24.67;35.76;100351.00;5058831;28;1906;-32
2023/05/18 06:08:09;;;;;;;;;;;;;;;27.33;31.43;100355.50;5058734;28;1259;-32
2023/05/18 06:10:35;;;;;;;;;;;;;;;27.14;31.24;100355.13;5071527;28;1314;-33
2023/05/18 06:13:00;;;;;;;;;;;;;;;27.48;30.85;100351.91;5045406;28;1384;-34
2023/05/18 06:15:55;;;;;;;;;;;;;;;26.83;31.91;100350.00;5036547;28;1674;-33
2023/05/18 06:18:22;;;;;;;;;;;;;;;26.87;31.89;100335.97;5043482;28;1424;-28
2023/05/18 06:20:49;;;;;;;;;;;;;;;27.00;31.59;100334.41;5058539;28;1246;-34
2023/05/18 06:23:21;;;;;;;;;;;;;;;27.16;31.27;100325.25;5027757;28;1259;-33
2023/05/18 06:26:07;;;;;;;;;;;;;;;26.99;31.46;100328.16;5025511;28;1914;-32
2023/05/18 06:28:35;;;;;;;;;;;;;;;26.89;31.81;100323.09;5056945;28;1254;-29
2023/05/18 06:31:24;;;;;;;;;;;;;;;26.94;32.08;100314.44;5060860;28;1261;-34
2023/05/18 06:33:54;;;;;;;;;;;;;;;27.20;31.34;100313.03;5042350;28;1116;-31
2023/05/18 06:36:21;;;;;;;;;;;;;;;25.44;34.88;100321.56;5053334;28;1154;-34
2023/05/18 06:38:48;;;;;;;;;;;;;;;27.28;31.69;100328.25;5045574;28;1206;-35
2023/05/18 06:41:13;;;;;;;;;;;;;;;27.32;31.46;100339.50;5070965;28;1057;-28
2023/05/18 06:43:39;;;;;;;;;;;;;;;27.49;31.07;100345.47;5056397;28;1147;-35
2023/05/18 06:46:37;;;;;;;;;;;;;;;27.45;31.47;100349.59;5043701;28;1965;-30
2023/05/18 06:49:11;;;;;;;;;;;;;;;27.01;32.18;100342.34;5038558;28;1224;-36
2023/05/18 06:51:38;;;;;;;;;;;;;;;25.61;34.26;100348.34;5056220;28;1203;-33
2023/05/18 06:54:04;;;;;;;;;;;;;;;25.40;34.70;100345.31;5057941;28;1238;-36
2023/05/18 06:56:30;;;;;;;;;;;;;;;27.56;31.21;100349.03;5057724;28;1234;-35
2023/05/18 06:58:55;;;;;;;;;;;;;;;27.78;30.59;100353.63;5055136;28;1146;-34
2023/05/18 07:01:22;;;;;;;;;;;;;;;26.09;33.41;100361.50;5042961;28;1249;-34
2023/05/18 07:03:48;;;;;;;;;;;;;;;25.31;35.36;100362.53;5045126;28;1182;-36
2023/05/18 07:06:13;;;;;;;;;;;;;;;27.60;31.30;100369.25;5075816;28;1978;-31
2023/05/18 07:08:39;;;;;;;;;;;;;;;27.87;30.87;100368.66;5062557;28;1051;-30
2023/05/18 07:11:05;;;;;;;;;;;;;;;27.84;30.69;100374.44;5068573;28;1181;-35
2023/05/18 07:13:30;;;;;;;;;;;;;;;27.86;31.02;100377.81;5056383;28;1141;-35
2023/05/18 07:15:56;;;;;;;;;;;;;;;28.01;30.63;100383.06;5056016;28;1231;-35
2023/05/18 07:18:21;;;;;;;;;;;;;;;25.93;33.74;100394.88;5066215;28;1115;-34
2023/05/18 07:20:47;;;;;;;;;;;;;;;25.60;34.72;100392.44;5062667;28;1074;-35
2023/05/18 07:23:12;;;;;;;;;;;;;;;27.73;31.35;100405.53;5070726;28;1099;-36
2023/05/18 07:25:38;;;;;;;;;;;;;;;27.75;31.22;100407.03;5072240;28;1913;-37
2023/05/18 07:28:04;;;;;;;;;;;;;;;28.07;30.65;100412.03;5066209;28;1083;-35
2023/05/18 07:30:29;;;;;;;;;;;;;;;27.91;30.92;100423.16;5062841;28;1092;-36
2023/05/18 07:32:55;;;;;;;;;;;;;;;27.87;31.11;100417.31;5065736;28;1123;-35
2023/05/18 07:35:21;;;;;;;;;;;;;;;26.20;33.61;100416.84;5058405;28;1194;-37
2023/05/18 07:37:47;;;;;;;;;;;;;;;25.60;36.02;100414.84;5065299;28;1087;-36
2023/05/18 07:40:12;;;;;;;;;;;;;;;27.58;31.94;100425.34;5062366;28;1135;-33
2023/05/18 07:42:38;;;;;;;;;;;;;;;27.75;31.60;100407.03;5065780;28;1131;-36
2023/05/18 07:45:04;;;;;;;;;;;;;;;27.78;31.93;100416.59;5068247;28;1910;-34
2023/05/18 07:47:30;;;;;;;;;;;;;;;27.63;32.02;100432.88;5062189;28;1235;-35
2023/05/18 07:49:55;;;;;;;;;;;;;;;27.87;31.87;100417.31;5074646;28;1022;-35
2023/05/18 07:52:21;;;;;;;;;;;;;;;26.12;35.88;100419.63;5059621;28;1039;-32
2023/05/18 07:54:46;;;;;;;;;;;;;;;25.78;36.56;100397.53;5071188;28;1095;-36
2023/05/18 07:57:11;;;;;;;;;;;;;;;27.56;33.40;100400.38;5066462;28;1206;-34
2023/05/18 07:59:37;;;;;;;;;;;;;;;27.67;32.80;100417.94;5046604;28;1115;-35
2023/05/18 08:02:04;;;;;;;;;;;;;;;27.75;32.65;100423.25;5055582;28;1199;-31
2023/05/18 08:04:29;;;;;;;;;;;;;;;27.82;32.73;100430.56;5055731;28;1158;-32
2023/05/18 08:06:59;;;;;;;;;;;;;;;27.65;33.09;100438.91;5067795;28;1914;-30
2023/05/18 08:09:25;;;;;;;;;;;;;;;26.15;36.70;100438.13;5063454;28;1215;-36
2023/05/18 08:11:51;;;;;;;;;;;;;;;25.64;38.73;100409.97;5078622;28;1095;-35
2023/05/18 08:14:16;;;;;;;;;;;;;;;27.54;34.10;100415.13;5059732;28;1282;-34
2023/05/18 08:16:42;;;;;;;;;;;;;;;27.73;33.73;100428.00;5061860;28;1372;-33
2023/05/18 08:19:07;;;;;;;;;;;;;;;27.82;33.16;100426.00;5074583;28;920;-34
2023/05/18 08:21:33;;;;;;;;;;;;;;;27.99;33.04;100425.72;5074073;28;1115;-36
2023/05/18 08:23:58;;;;;;;;;;;;;;;26.17;37.01;100436.91;5066687;28;1051;-33
2023/05/18 08:26:25;;;;;;;;;;;;;;;26.02;37.41;100434.22;5065121;28;1914;-32
2023/05/18 08:28:51;;;;;;;;;;;;;;;27.56;34.39;100434.69;5078874;28;1162;-34
2023/05/18 08:31:17;;;;;;;;;;;;;;;27.80;33.23;100440.72;5078656;28;1023;-34
2023/05/18 08:33:42;;;;;;;;;;;;;;;27.93;33.33;100445.41;5067646;28;1066;-35
2023/05/18 08:36:08;;;;;;;;;;;;;;;27.06;34.38;100444.34;5075411;28;1095;-34
2023/05/18 08:38:33;;;;;;;;;;;;;;;25.67;37.99;100445.44;5078537;28;1050;-31
2023/05/18 08:41:14;;;;;;;;;;;;;;;25.50;38.76;100447.41;5078162;28;1166;-36
2023/05/18 08:43:41;;;;;;;;;;;;;;;27.59;33.76;100448.63;5046697;28;1231;-34
2023/05/18 08:46:10;;;;;;;;;;;;;;;27.72;33.46;100449.81;5064457;28;1910;-36
2023/05/18 08:48:35;;;;;;;;;;;;;;;27.84;33.25;100458.25;5053737;28;1346;-35
2023/05/18 08:51:01;;;;;;;;;;;;;;;27.79;33.15;100455.28;5049312;28;1117;-34
2023/05/18 08:53:27;;;;;;;;;;;;;;;27.59;33.54;100464.03;5068124;28;1249;-36
2023/05/18 08:55:53;;;;;;;;;;;;;;;25.83;38.08;100470.56;5052858;28;1243;-35
2023/05/18 08:58:19;;;;;;;;;;;;;;;25.74;38.84;100450.94;5059472;28;1098;-34
2023/05/18 09:00:44;;;;;;;;;;;;;;;27.70;34.16;100430.25;5064963;28;1388;-32
2023/05/18 09:03:10;;;;;;;;;;;;;;;27.83;33.58;100427.66;5078082;28;1068;-35
2023/05/18 09:05:35;;;;;;;;;;;;;;;27.98;33.32;100449.19;5061965;28;1910;-35
2023/05/18 09:08:02;;;;;;;;;;;;;;;25.99;38.43;100449.91;5049473;28;1070;-35
2023/05/18 09:10:27;;;;;;;;;;;;;;;25.48;39.62;100435.13;5075463;28;1058;-36
2023/05/18 09:12:53;;;;;;;;;;;;;;;27.36;35.34;100444.25;5052661;28;1509;-36
2023/05/18 09:15:18;;;;;;;;;;;;;;;27.75;34.01;100430.50;5064113;28;1185;-34
2023/05/18 09:17:44;;;;;;;;;;;;;;;27.69;33.91;100434.84;5068629;28;1142;-34
2023/05/18 09:20:10;;;;;;;;;;;;;;;27.65;33.88;100441.63;5055153;28;1181;-36
2023/05/18 09:22:35;;;;;;;;;;;;;;;27.90;33.48;100446.63;5050918;28;1111;-31
2023/05/18 09:25:04;;;;;;;;;;;;;;;26.82;35.30;100442.78;5071684;28;1985;-32
2023/05/18 09:27:30;;;;;;;;;;;;;;;26.03;38.66;100440.41;5055661;28;1244;-36
2023/05/18 09:29:55;;;;;;;;;;;;;;;25.91;38.43;100446.25;5060406;28;1254;-35
2023/05/18 09:32:21;;;;;;;;;;;;;;;27.74;34.23;100453.97;5071687;28;1330;-34
2023/05/18 09:34:47;;;;;;;;;;;;;;;28.14;33.55;100452.66;5063990;28;962;-30
2023/05/18 09:37:16;;;;;;;;;;;;;;;27.40;35.81;100458.22;5059093;28;896;-35
2023/05/18 09:39:42;;;;;;;;;;;;;;;27.02;38.50;100454.72;5077063;28;1646;-29
2023/05/18 09:42:08;;;;;;;;;;;;;;;28.06;35.72;100448.19;5071469;28;1224;-35
2023/05/18 09:44:33;;;;;;;;;;;;;;;28.33;34.84;100447.56;5069573;28;1237;-29
2023/05/18 09:46:59;;;;;;;;;;;;;;;28.19;34.74;100430.41;5070322;28;1902;-34
2023/05/18 09:49:24;;;;;;;;;;;;;;;28.15;35.05;100437.25;5070683;28;1003;-32
2023/05/18 09:51:50;;;;;;;;;;;;;;;28.06;35.37;100436.56;5065893;28;971;-34
2023/05/18 09:54:15;;;;;;;;;;;;;;;26.81;38.09;100443.81;5073516;28;1138;-34
2023/05/18 09:56:41;;;;;;;;;;;;;;;26.62;38.67;100446.91;5076982;28;1099;-30
2023/05/18 09:59:07;;;;;;;;;;;;;;;27.92;35.93;100439.19;5057764;28;1168;-31
2023/05/18 10:01:33;;;;;;;;;;;;;;;27.84;35.75;100456.34;5069621;28;1294;-36
2023/05/18 10:04:02;;;;;;;;;;;;;;;27.97;35.32;100446.69;5058965;28;905;-36
2023/05/18 10:06:28;;;;;;;;;;;;;;;28.15;34.97;100431.84;5041561;28;1944;-34
2023/05/18 10:08:55;;;;;;;;;;;;;;;27.93;35.17;100440.84;5058252;28;1138;-37
2023/05/18 10:11:22;;;;;;;;;;;;;;;27.29;36.02;100447.94;5056926;28;1147;-36
2023/05/18 10:13:51;;;;;;;;;;;;;;;26.34;38.35;100433.25;5065208;28;1199;-36
2023/05/18 10:16:17;;;;;;;;;;;;;;;27.31;36.78;100427.78;5057038;28;1562;-33
2023/05/18 10:18:43;;;;;;;;;;;;;;;27.01;35.57;100306.38;5076050;28;870;-35
2023/05/18 10:21:08;;;;;;;;;;;;;;;27.81;35.24;100443.22;5069183;28;1175;-36
2023/05/18 10:23:34;;;;;;;;;;;;;;;28.00;34.86;100440.88;5052999;28;1087;-34
2023/05/18 10:26:00;;;;;;;;;;;;;;;27.90;35.05;100433.13;5065992;28;1902;-30
2023/05/18 10:28:27;;;;;;;;;;;;;;;27.61;35.64;100438.47;5047643;28;1064;-34
2023/05/18 10:30:54;;;;;;;;;;;;;;;26.35;38.81;100430.38;5075742;28;1093;-33
2023/05/18 10:33:20;;;;;;;;;;;;;;;26.59;38.41;100422.16;5067500;28;1130;-35
2023/05/18 10:35:48;;;;;;;;;;;;;;;27.65;35.79;100428.09;5041081;28;1253;-35
2023/05/18 10:38:15;;;;;;;;;;;;;;;27.60;35.89;100400.84;5058660;28;901;-33
2023/05/18 10:40:41;;;;;;;;;;;;;;;27.80;35.40;100411.00;5058338;28;1101;-32
2023/05/18 10:43:06;;;;;;;;;;;;;;;27.61;35.69;100422.25;5048644;28;1082;-35
2023/05/18 10:45:32;;;;;;;;;;;;;;;27.61;36.28;100419.56;5071903;28;2001;-36
2023/05/18 10:48:00;;;;;;;;;;;;;;;26.44;39.64;100411.38;5069000;28;1238;-34
2023/05/18 10:50:25;;;;;;;;;;;;;;;27.28;38.57;100413.84;5065540;28;1007;-37
2023/05/18 10:52:51;;;;;;;;;;;;;;;27.66;36.96;100413.56;5065891;28;1060;-33
2023/05/18 10:55:16;;;;;;;;;;;;;;;27.83;36.44;100407.91;5055168;28;1125;-34
2023/05/18 10:58:02;;;;;;;;;;;;;;;27.86;36.67;100408.34;5055618;28;1265;-35
2023/05/18 11:00:28;;;;;;;;;;;;;;;27.85;36.45;100408.53;5056449;28;1378;-31
2023/05/18 11:02:54;;;;;;;;;;;;;;;27.50;37.61;100411.97;5049530;28;1358;-33
2023/05/18 11:05:23;;;;;;;;;;;;;;;26.50;40.48;100400.69;5064337;28;1925;-35
2023/05/18 11:07:48;;;;;;;;;;;;;;;27.69;37.71;100402.41;5050922;28;1108;-32
2023/05/18 11:10:14;;;;;;;;;;;;;;;27.71;36.93;100400.31;5061996;28;1177;-35
2023/05/18 11:12:39;;;;;;;;;;;;;;;28.02;36.72;100405.53;5068329;28;1219;-35
2023/05/18 11:15:05;;;;;;;;;;;;;;;28.08;36.22;100404.75;5075502;28;1079;-33
2023/05/18 11:17:31;;;;;;;;;;;;;;;28.03;36.42;100405.34;5070730;28;913;-34
2023/05/18 11:20:06;;;;;;;;;;;;;;;27.28;38.69;100403.88;5059454;28;1175;-33
2023/05/18 11:22:50;;;;;;;;;;;;;;;26.81;39.83;100406.03;5055426;28;1211;-32
2023/05/18 11:25:25;;;;;;;;;;;;;;;26.69;40.10;100405.69;5068636;28;1898;-33
2023/05/18 11:27:51;;;;;;;;;;;;;;;27.75;37.12;100403.47;5069092;28;1130;-33
2023/05/18 11:30:40;;;;;;;;;;;;;;;28.02;36.33;100409.09;5075515;28;1163;-34
2023/05/18 11:33:06;;;;;;;;;;;;;;;28.29;35.79;100401.16;5074477;28;1177;-33
2023/05/18 11:35:33;;;;;;;;;;;;;;;27.74;36.21;100410.75;5064162;28;1219;-33
2023/05/18 11:38:06;;;;;;;;;;;;;;;27.00;37.79;100407.28;5068475;28;1071;-36
2023/05/18 11:40:47;;;;;;;;;;;;;;;26.82;38.29;100408.56;5059322;28;1119;-35
2023/05/18 11:43:19;;;;;;;;;;;;;;;28.08;35.77;100404.75;5059552;28;1079;-34
2023/05/18 11:45:51;;;;;;;;;;;;;;;28.26;35.44;100401.53;5072265;28;1902;-36
2023/05/18 11:48:19;;;;;;;;;;;;;;;27.64;36.79;100402.13;5071922;28;1269;-36
2023/05/18 11:50:45;;;;;;;;;;;;;;;26.50;39.83;100410.63;5074622;28;1027;-30
2023/05/18 11:53:13;;;;;;;;;;;;;;;26.59;39.78;100412.19;5062792;28;1301;-35
2023/05/18 11:55:39;;;;;;;;;;;;;;;27.90;36.67;100408.78;5051062;28;960;-29
2023/05/18 11:58:05;;;;;;;;;;;;;;;28.02;36.40;100410.94;5054774;28;1175;-34
2023/05/18 12:00:30;;;;;;;;;;;;;;;28.30;35.80;100410.06;5049028;28;1085;-36
2023/05/18 12:02:56;;;;;;;;;;;;;;;26.95;39.32;100404.31;5076973;28;932;-35
2023/05/18 12:05:21;;;;;;;;;;;;;;;26.89;39.54;100403.25;5066583;28;1977;-34
2023/05/18 12:07:50;;;;;;;;;;;;;;;26.43;40.75;100398.91;5052574;28;1107;-36
2023/05/18 12:10:16;;;;;;;;;;;;;;;27.96;36.22;100409.88;5070799;28;1563;-31
2023/05/18 12:12:42;;;;;;;;;;;;;;;27.43;36.31;100409.22;5072552;28;1209;-35
2023/05/18 12:15:08;;;;;;;;;;;;;;;26.27;39.62;100408.84;5071152;28;874;-34
2023/05/18 12:17:43;;;;;;;;;;;;;;;26.37;39.58;100414.00;5072600;28;1043;-36
2023/05/18 12:20:10;;;;;;;;;;;;;;;27.80;37.06;100413.69;5069596;28;1434;-36
2023/05/18 12:22:36;;;;;;;;;;;;;;;28.04;36.02;100412.44;5074312;28;1118;-35
2023/05/18 12:25:01;;;;;;;;;;;;;;;26.74;37.78;100419.47;5070946;28;1222;-35
2023/05/18 12:27:28;;;;;;;;;;;;;;;26.45;39.06;100405.81;5044724;28;1906;-29
2023/05/18 12:29:53;;;;;;;;;;;;;;;26.56;38.54;100412.56;5068337;28;1131;-30
2023/05/18 12:32:19;;;;;;;;;;;;;;;27.91;35.31;100406.94;5077671;28;1162;-36
2023/05/18 12:34:44;;;;;;;;;;;;;;;27.34;35.95;100404.97;5071398;28;1347;-35
2023/05/18 12:37:10;;;;;;;;;;;;;;;26.63;37.52;100408.13;5059384;28;1584;-34
2023/05/18 12:39:36;;;;;;;;;;;;;;;27.00;37.74;100407.28;5069196;28;1206;-35
2023/05/18 12:42:13;;;;;;;;;;;;;;;27.83;36.11;100407.91;5063369;28;1568;-35
2023/05/18 12:44:42;;;;;;;;;;;;;;;27.30;36.83;100407.22;5061142;28;1556;-31
2023/05/18 12:47:11;;;;;;;;;;;;;;;26.40;37.98;100411.75;5045183;28;1906;-29